createdAt,value
2018-01-03T00:02:21.480Z,161.47
2018-01-03T00:04:49.104Z,153.87
2018-01-03T00:07:16.671Z,168.60
2018-01-03T00:09:44.246Z,156.77
2018-01-03T00:12:11.855Z,137.00
2018-01-03T00:14:39.430Z,142.00
2018-01-03T00:17:07.001Z,150.77
2018-01-03T00:19:34.609Z,125.40
2018-01-03T00:22:02.207Z,148.20
2018-01-03T00:24:29.805Z,157.80
2018-01-03T00:26:57.402Z,145.23
2018-01-03T00:29:24.989Z,114.97
2018-01-03T00:31:52.559Z,126.97
2018-01-03T00:34:20.173Z,111.50
2018-01-03T00:36:47.747Z,86.70
2018-01-03T00:39:15.310Z,98.27
2018-01-03T00:41:42.936Z,101.93
2018-01-03T00:44:10.522Z,101.60
2018-01-03T00:46:38.103Z,96.30
2018-01-03T00:49:05.728Z,105.83
2018-01-03T00:51:33.349Z,102.37
2018-01-03T00:54:00.926Z,97.10
2018-01-03T00:56:28.538Z,85.67
2018-01-03T00:58:56.115Z,86.93
2018-01-03T01:01:23.736Z,101.03
2018-01-03T01:03:51.376Z,78.70
2018-01-03T01:06:18.958Z,77.67
2018-01-03T01:08:46.537Z,72.63
2018-01-03T01:11:14.162Z,74.53
2018-01-03T01:13:41.731Z,96.10
2018-01-03T01:16:09.301Z,92.33
2018-01-03T01:18:36.895Z,103.90
2018-01-03T01:21:04.500Z,98.33
2018-01-03T01:23:32.084Z,96.57
2018-01-03T01:25:59.713Z,103.43
2018-01-03T01:28:27.270Z,101.73
2018-01-03T01:30:54.862Z,106.73
2018-01-03T01:33:22.477Z,112.70
2018-01-03T01:35:50.069Z,109.80
2018-01-03T01:38:17.654Z,103.37
2018-01-03T01:40:45.250Z,106.20
2018-01-03T01:43:12.837Z,90.80
2018-01-03T01:45:40.397Z,87.57
2018-01-03T01:48:08.010Z,87.43
2018-01-03T01:50:35.569Z,82.90
2018-01-03T01:53:03.173Z,92.20
2018-01-03T01:55:30.785Z,83.70
2018-01-03T01:57:58.330Z,71.23
2018-01-03T02:00:25.882Z,85.30
2018-01-03T02:02:53.603Z,74.80
2018-01-03T02:05:21.161Z,84.10
2018-01-03T02:07:48.869Z,73.83
2018-01-03T02:10:16.489Z,80.57
2018-01-03T02:12:44.063Z,73.30
2018-01-03T02:15:11.640Z,69.77
2018-01-03T02:17:39.247Z,71.87
2018-01-03T02:20:06.816Z,75.73
2018-01-03T02:22:34.409Z,88.10
2018-01-03T02:25:02.021Z,75.10
2018-01-03T02:27:29.582Z,87.63
2018-01-03T02:29:57.147Z,87.73
2018-01-03T02:32:24.757Z,94.23
2018-01-03T02:34:52.344Z,101.93
2018-01-03T02:37:19.923Z,85.03
2018-01-03T02:39:47.570Z,89.00
2018-01-03T02:42:15.162Z,86.40
2018-01-03T02:44:42.734Z,71.30
2018-01-03T02:47:10.334Z,72.90
2018-01-03T02:49:37.909Z,74.43
2018-01-03T02:52:05.489Z,73.83
2018-01-03T02:54:33.094Z,77.87
2018-01-03T02:57:00.851Z,74.97
2018-01-03T02:59:28.445Z,74.67
2018-01-03T03:01:56.064Z,83.90
2018-01-03T03:04:23.696Z,89.97
2018-01-03T03:06:51.275Z,82.50
2018-01-03T03:09:18.884Z,82.57
2018-01-03T03:11:46.430Z,71.67
2018-01-03T03:14:13.999Z,72.60
2018-01-03T03:16:41.613Z,71.07
2018-01-03T03:19:09.184Z,54.17
2018-01-03T03:21:36.750Z,72.73
2018-01-03T03:24:04.392Z,82.40
2018-01-03T03:26:31.980Z,77.17
2018-01-03T03:28:59.558Z,77.23
2018-01-03T03:31:27.172Z,63.70
2018-01-03T03:33:54.850Z,71.90
2018-01-03T03:36:22.438Z,81.93
2018-01-03T03:38:50.041Z,79.80
2018-01-03T03:41:17.607Z,72.60
2018-01-03T03:43:45.184Z,72.53
2018-01-03T03:46:12.793Z,71.63
2018-01-03T03:48:40.420Z,79.60
2018-01-03T03:51:08.002Z,64.23
2018-01-03T03:53:35.666Z,70.33
2018-01-03T03:56:03.251Z,77.37
2018-01-03T03:58:30.830Z,71.93
2018-01-03T04:00:58.440Z,63.83
2018-01-03T04:03:26.007Z,68.27
2018-01-03T04:05:53.571Z,61.87
2018-01-03T04:08:21.186Z,73.23
2018-01-03T04:10:48.753Z,76.17
2018-01-03T04:13:16.317Z,65.07
2018-01-03T04:15:43.920Z,69.60
2018-01-03T04:18:11.494Z,71.73
2018-01-03T04:20:39.051Z,74.43
2018-01-03T04:23:06.656Z,65.97
2018-01-03T04:25:34.253Z,71.40
2018-01-03T04:28:01.827Z,71.83
2018-01-03T04:30:29.441Z,64.40
2018-01-03T04:32:57.014Z,86.40
2018-01-03T04:35:24.593Z,61.97
2018-01-03T04:37:52.197Z,61.07
2018-01-03T04:40:19.777Z,52.47
2018-01-03T04:42:47.369Z,55.40
2018-01-03T04:45:14.985Z,50.20
2018-01-03T04:47:42.546Z,73.87
2018-01-03T04:50:10.128Z,68.87
2018-01-03T04:52:37.754Z,62.47
2018-01-03T04:55:05.339Z,72.00
2018-01-03T04:57:32.914Z,57.77
2018-01-03T05:00:00.607Z,59.43
2018-01-03T05:02:28.176Z,58.27
2018-01-03T05:04:55.761Z,60.07
2018-01-03T05:07:23.398Z,61.33
2018-01-03T05:09:50.957Z,59.03
2018-01-03T05:12:18.530Z,56.60
2018-01-03T05:14:46.144Z,57.03
2018-01-03T05:17:13.711Z,57.17
2018-01-03T05:19:41.280Z,53.27
2018-01-03T05:22:08.890Z,57.23
2018-01-03T05:24:36.477Z,60.67
2018-01-03T05:27:04.052Z,55.00
2018-01-03T05:29:31.673Z,61.23
2018-01-03T05:31:59.238Z,61.43
2018-01-03T05:34:26.805Z,63.10
2018-01-03T05:36:54.419Z,62.77
2018-01-03T05:39:21.991Z,69.30
2018-01-03T05:41:49.557Z,53.83
2018-01-03T05:44:17.164Z,58.03
2018-01-03T05:46:44.755Z,55.67
2018-01-03T05:49:12.380Z,64.20
2018-01-03T05:51:39.981Z,58.63
2018-01-03T05:54:07.559Z,53.90
2018-01-03T05:56:35.136Z,66.13
2018-01-03T05:59:02.858Z,60.70
2018-01-03T06:01:30.641Z,54.60
2018-01-03T06:03:58.313Z,58.20
2018-01-03T06:06:25.918Z,58.20
2018-01-03T06:08:53.487Z,66.00
2018-01-03T06:11:21.069Z,64.73
2018-01-03T06:13:48.733Z,65.40
2018-01-03T06:16:16.302Z,61.83
2018-01-03T06:18:43.915Z,96.03
2018-01-03T06:21:11.514Z,69.60
2018-01-03T06:23:39.073Z,65.60
2018-01-03T06:26:06.661Z,60.40
2018-01-03T06:28:34.275Z,66.67
2018-01-03T06:31:01.847Z,52.70
2018-01-03T06:33:29.472Z,59.33
2018-01-03T06:35:57.093Z,60.13
2018-01-03T06:38:24.678Z,60.43
2018-01-03T06:40:52.271Z,71.97
2018-01-03T06:43:19.879Z,67.17
2018-01-03T06:45:47.443Z,57.97
2018-01-03T06:48:15.006Z,60.23
2018-01-03T06:50:42.628Z,91.57
2018-01-03T06:53:10.195Z,72.97
2018-01-03T06:55:37.769Z,72.70
2018-01-03T06:58:05.391Z,63.17
2018-01-03T07:00:32.973Z,63.67
2018-01-03T07:03:00.553Z,87.90
2018-01-03T07:05:28.155Z,65.57
2018-01-03T07:07:55.719Z,69.80
2018-01-03T07:10:23.612Z,55.83
2018-01-03T07:12:51.233Z,55.43
2018-01-03T07:15:18.820Z,62.07
2018-01-03T07:17:46.382Z,66.30
2018-01-03T07:20:13.994Z,55.30
2018-01-03T07:22:41.663Z,75.17
2018-01-03T07:25:09.235Z,61.50
2018-01-03T07:27:36.869Z,75.23
2018-01-03T07:30:04.449Z,61.37
2018-01-03T07:32:32.023Z,66.13
2018-01-03T07:34:59.635Z,72.43
2018-01-03T07:37:27.217Z,77.00
2018-01-03T07:39:54.844Z,81.33
2018-01-03T07:42:22.473Z,74.30
2018-01-03T07:44:50.082Z,135.63
2018-01-03T07:47:17.662Z,92.43
2018-01-03T07:49:45.244Z,64.87
2018-01-03T07:52:12.853Z,66.73
2018-01-03T07:54:40.413Z,61.93
2018-01-03T07:57:07.977Z,53.90
2018-01-03T07:59:35.594Z,51.50
2018-01-03T08:02:03.184Z,43.50
2018-01-03T08:04:30.751Z,44.40
2018-01-03T08:06:58.351Z,56.13
2018-01-03T08:09:25.938Z,51.57
2018-01-03T08:11:53.517Z,49.73
2018-01-03T08:14:21.134Z,46.63
2018-01-03T08:16:48.716Z,47.53
2018-01-03T08:19:16.314Z,40.00
2018-01-03T08:21:44.009Z,39.73
2018-01-03T08:24:11.584Z,25.50
2018-01-03T08:26:39.156Z,24.33
2018-01-03T08:29:06.818Z,34.83
2018-01-03T08:31:34.387Z,36.03
2018-01-03T08:34:01.964Z,30.87
2018-01-03T08:36:29.580Z,30.00
2018-01-03T08:38:57.198Z,37.30
2018-01-03T08:41:24.763Z,15.17
2018-01-03T08:43:52.355Z,15.83
2018-01-03T08:46:19.936Z,10.63
2018-01-03T08:48:47.509Z,10.90
2018-01-03T08:51:15.134Z,6.70
2018-01-03T08:53:42.729Z,12.93
2018-01-03T08:56:10.313Z,12.37
2018-01-03T08:58:37.928Z,21.87
2018-01-03T09:01:05.509Z,14.57
2018-01-03T09:03:33.076Z,11.20
2018-01-03T09:06:00.680Z,13.50
2018-01-03T09:08:28.258Z,15.33
2018-01-03T09:10:55.816Z,9.53
2018-01-03T09:13:23.446Z,8.97
2018-01-03T09:15:51.019Z,13.50
2018-01-03T09:18:19.457Z,15.60
2018-01-03T09:20:47.070Z,11.27
2018-01-03T09:23:14.659Z,10.67
2018-01-03T09:25:42.361Z,11.60
2018-01-03T09:28:09.957Z,10.63
2018-01-03T09:30:37.527Z,9.13
2018-01-03T09:33:05.134Z,11.87
2018-01-03T09:35:32.767Z,11.70
2018-01-03T09:38:00.345Z,9.27
2018-01-03T09:40:27.916Z,10.03
2018-01-03T09:42:55.532Z,12.63
2018-01-03T09:45:23.108Z,33.20
2018-01-03T09:47:50.673Z,31.63
2018-01-03T09:50:18.297Z,10.87
2018-01-03T09:52:45.875Z,13.03
2018-01-03T09:55:13.465Z,19.10
2018-01-03T09:57:41.091Z,21.33
2018-01-03T10:00:08.672Z,11.93
2018-01-03T10:02:36.280Z,14.17
2018-01-03T10:05:03.926Z,15.63
2018-01-03T10:07:31.516Z,19.03
2018-01-03T10:09:59.091Z,15.03
2018-01-03T10:12:26.718Z,16.30
2018-01-03T10:14:54.288Z,11.43
2018-01-03T10:17:22.339Z,19.70
2018-01-03T10:19:49.949Z,12.63
2018-01-03T10:22:17.539Z,20.20
2018-01-03T10:24:45.128Z,18.67
2018-01-03T10:27:12.735Z,14.33
2018-01-03T10:29:40.325Z,15.57
2018-01-03T10:32:07.904Z,17.00
2018-01-03T10:34:35.565Z,10.17
2018-01-03T10:37:03.132Z,11.73
2018-01-03T10:39:30.704Z,15.97
2018-01-03T10:41:58.342Z,13.20
2018-01-03T10:44:25.918Z,17.73
2018-01-03T10:46:53.490Z,29.30
2018-01-03T10:49:21.109Z,13.00
2018-01-03T10:51:48.687Z,10.10
2018-01-03T10:54:16.251Z,9.63
2018-01-03T10:56:43.833Z,11.03
2018-01-03T10:59:11.391Z,8.97
2018-01-03T11:01:38.983Z,11.17
2018-01-03T11:04:06.673Z,13.00
2018-01-03T11:06:34.270Z,10.90
2018-01-03T11:09:01.844Z,11.13
2018-01-03T11:11:29.462Z,13.87
2018-01-03T11:13:57.041Z,18.00
2018-01-03T11:16:24.607Z,9.90
2018-01-03T11:18:52.202Z,10.27
2018-01-03T11:21:19.842Z,4.60
2018-01-03T11:23:47.428Z,5.47
2018-01-03T11:26:15.064Z,16.57
2018-01-03T11:28:43.086Z,17.17
2018-01-03T11:31:10.667Z,6.63
2018-01-03T11:33:38.337Z,17.50
2018-01-03T11:36:06.079Z,14.60
2018-01-03T11:38:33.892Z,11.63
2018-01-03T11:41:01.519Z,19.40
2018-01-03T11:43:29.117Z,11.97
2018-01-03T11:45:56.704Z,19.40
2018-01-03T11:48:24.331Z,18.13
2018-01-03T11:50:51.912Z,12.70
2018-01-03T11:53:19.494Z,16.20
2018-01-03T11:55:47.118Z,5.30
2018-01-03T11:58:14.701Z,6.10
2018-01-03T12:00:42.311Z,9.20
2018-01-03T12:03:09.935Z,10.60
2018-01-03T12:05:37.525Z,19.13
2018-01-03T12:08:05.108Z,15.87
2018-01-03T12:10:32.731Z,12.50
2018-01-03T12:13:00.306Z,15.80
2018-01-03T12:15:27.869Z,15.47
2018-01-03T12:17:55.508Z,7.97
2018-01-03T12:20:23.089Z,11.23
2018-01-03T12:22:50.673Z,11.67
2018-01-03T12:25:18.269Z,26.27
2018-01-03T12:27:45.838Z,14.47
2018-01-03T12:30:13.391Z,11.27
2018-01-03T12:32:40.992Z,13.93
2018-01-03T12:35:08.573Z,16.43
2018-01-03T12:37:36.137Z,15.13
2018-01-03T12:40:03.855Z,21.20
2018-01-03T12:42:31.419Z,10.70
2018-01-03T12:44:59.027Z,10.50
2018-01-03T12:47:26.638Z,8.40
2018-01-03T12:49:54.212Z,11.40
2018-01-03T12:52:21.775Z,9.40
2018-01-03T12:54:49.414Z,8.53
2018-01-03T12:57:16.989Z,13.13
2018-01-03T12:59:44.716Z,10.17
2018-01-03T13:02:12.326Z,12.43
2018-01-03T13:04:39.906Z,16.60
2018-01-03T13:07:07.529Z,10.40
2018-01-03T13:09:35.141Z,8.40
2018-01-03T13:12:02.838Z,12.33
2018-01-03T13:14:30.487Z,15.53
2018-01-03T13:16:58.119Z,32.93
2018-01-03T13:19:25.738Z,10.80
2018-01-03T13:21:53.325Z,16.70
2018-01-03T13:24:21.038Z,14.83
2018-01-03T13:26:48.593Z,22.47
2018-01-03T13:29:16.177Z,18.20
2018-01-03T13:31:43.850Z,14.03
2018-01-03T13:34:11.431Z,13.43
2018-01-03T13:36:38.998Z,20.30
2018-01-03T13:39:06.685Z,22.00
2018-01-03T13:41:34.248Z,25.30
2018-01-03T13:44:01.804Z,17.73
2018-01-03T13:46:29.417Z,16.63
2018-01-03T13:48:57.016Z,15.50
2018-01-03T13:51:24.579Z,11.73
2018-01-03T13:53:52.280Z,20.47
2018-01-03T13:56:19.936Z,8.93
2018-01-03T13:58:47.498Z,11.17
2018-01-03T14:01:15.482Z,14.50
2018-01-03T14:03:43.055Z,35.40
2018-01-03T14:06:10.782Z,39.27
2018-01-03T14:08:38.400Z,26.97
2018-01-03T14:11:06.028Z,33.30
2018-01-03T14:13:33.597Z,23.40
2018-01-03T14:16:01.432Z,27.63
2018-01-03T14:18:29.243Z,26.57
2018-01-03T14:20:56.835Z,21.90
2018-01-03T14:23:24.457Z,34.97
2018-01-03T14:25:52.040Z,21.00
2018-01-03T14:28:20.894Z,21.87
2018-01-03T14:30:48.569Z,16.80
2018-01-03T14:33:16.156Z,12.90
2018-01-03T14:35:43.703Z,12.77
2018-01-03T14:38:11.296Z,17.43
2018-01-03T14:40:38.865Z,17.70
2018-01-03T14:43:06.647Z,24.87
2018-01-03T14:45:34.308Z,18.43
2018-01-03T14:48:01.987Z,17.47
2018-01-03T14:50:29.562Z,15.97
2018-01-03T14:52:57.313Z,22.30
2018-01-03T14:55:24.882Z,36.20
2018-01-03T14:57:52.460Z,44.93
2018-01-03T15:00:20.279Z,36.43
2018-01-03T15:02:48.101Z,36.13
2018-01-03T15:05:15.714Z,57.93
2018-01-03T15:07:43.369Z,31.87
2018-01-03T15:10:11.057Z,46.77
2018-01-03T15:12:38.697Z,36.17
2018-01-03T15:15:06.313Z,38.53
2018-01-03T15:17:33.934Z,66.13
2018-01-03T15:20:01.673Z,80.70
2018-01-03T15:22:29.272Z,55.37
2018-01-03T15:24:56.830Z,55.00
2018-01-03T15:27:24.465Z,42.57
2018-01-03T15:29:52.067Z,27.90
2018-01-03T15:32:19.644Z,26.67
2018-01-03T15:34:47.221Z,26.37
2018-01-03T15:37:14.907Z,18.27
2018-01-03T15:39:42.494Z,34.93
2018-01-03T15:42:10.069Z,28.47
2018-01-03T15:44:37.671Z,28.30
2018-01-03T15:47:05.249Z,32.20
2018-01-03T15:49:33.010Z,36.23
2018-01-03T15:52:00.624Z,46.97
2018-01-03T15:54:28.347Z,34.90
2018-01-03T15:56:58.669Z,27.30
2018-01-03T15:59:29.922Z,32.47
2018-01-03T16:02:00.694Z,32.57
2018-01-03T16:04:28.395Z,53.87
2018-01-03T16:06:56.088Z,48.93
2018-01-03T16:09:23.747Z,35.20
2018-01-03T16:11:51.434Z,40.97
2018-01-03T16:14:19.001Z,41.83
2018-01-03T16:16:46.725Z,23.73
2018-01-03T16:19:14.325Z,29.57
2018-01-03T16:21:41.879Z,39.57
2018-01-03T16:24:09.452Z,28.40
2018-01-03T16:26:37.055Z,43.50
2018-01-03T16:29:04.619Z,35.43
2018-01-03T16:31:32.325Z,52.33
2018-01-03T16:33:59.899Z,55.77
2018-01-03T16:36:27.483Z,56.10
2018-01-03T16:38:55.047Z,36.90
2018-01-03T16:41:22.662Z,57.63
2018-01-03T16:43:50.384Z,50.77
2018-01-03T16:46:18.006Z,77.67
2018-01-03T16:48:45.620Z,82.83
2018-01-03T16:51:13.171Z,41.63
2018-01-03T16:53:40.752Z,49.67
2018-01-03T16:56:12.385Z,36.83
2018-01-03T16:58:44.775Z,49.07
2018-01-03T17:01:16.544Z,66.47
2018-01-03T17:03:44.597Z,45.90
2018-01-03T17:06:12.259Z,43.10
2018-01-03T17:08:39.851Z,61.20
2018-01-03T17:11:07.578Z,35.40
2018-01-03T17:13:35.240Z,26.03
2018-01-03T17:16:02.928Z,54.37
2018-01-03T17:18:30.519Z,26.23
2018-01-03T17:20:58.241Z,34.23
2018-01-03T17:23:25.840Z,37.03
2018-01-03T17:25:53.415Z,24.30
2018-01-03T17:28:20.976Z,58.27
2018-01-03T17:30:48.583Z,66.67
2018-01-03T17:33:16.152Z,47.30
2018-01-03T17:35:43.714Z,39.13
2018-01-03T17:38:11.298Z,47.57
2018-01-03T17:40:38.869Z,79.43
2018-01-03T17:43:06.449Z,44.23
2018-01-03T17:45:34.061Z,39.80
2018-01-03T17:48:01.622Z,35.90
2018-01-03T17:50:29.183Z,37.27
2018-01-03T17:52:56.765Z,26.53
2018-01-03T17:55:24.326Z,21.43
2018-01-03T17:57:51.933Z,33.73
2018-01-03T18:00:19.585Z,33.67
2018-01-03T18:02:47.143Z,76.80
2018-01-03T18:05:14.734Z,78.47
2018-01-03T18:07:42.320Z,243.77
2018-01-03T18:10:10.044Z,271.13
2018-01-03T18:12:37.654Z,218.17
2018-01-03T18:15:05.383Z,185.67
2018-01-03T18:17:32.942Z,154.80
2018-01-03T18:20:00.669Z,128.80
2018-01-03T18:22:28.282Z,103.70
2018-01-03T18:24:56.550Z,67.60
2018-01-03T18:27:24.197Z,87.20
2018-01-03T18:29:51.813Z,94.53
2018-01-03T18:32:19.385Z,95.60
2018-01-03T18:34:46.946Z,60.13
2018-01-03T18:37:14.530Z,43.57
2018-01-03T18:39:42.160Z,41.80
2018-01-03T18:42:09.875Z,66.57
2018-01-03T18:44:37.460Z,72.20
2018-01-03T18:47:04.998Z,72.60
2018-01-03T18:49:32.573Z,81.77
2018-01-03T18:52:00.179Z,60.67
2018-01-03T18:54:27.726Z,67.57
2018-01-03T18:56:55.294Z,54.90
2018-01-03T18:59:22.889Z,42.77
2018-01-03T19:01:50.444Z,48.40
2018-01-03T19:04:17.995Z,43.00
2018-01-03T19:06:45.651Z,38.03
2018-01-03T19:09:13.194Z,39.03
2018-01-03T19:11:40.752Z,43.13
2018-01-03T19:14:08.364Z,44.27
2018-01-03T19:16:35.931Z,48.93
2018-01-03T19:19:03.498Z,113.93
2018-01-03T19:21:31.219Z,59.40
2018-01-03T19:23:58.775Z,51.43
2018-01-03T19:26:26.362Z,38.43
2018-01-03T19:28:53.958Z,36.70
2018-01-03T19:31:21.544Z,45.50
2018-01-03T19:33:49.093Z,37.13
2018-01-03T19:36:16.688Z,47.90
2018-01-03T19:38:44.268Z,56.83
2018-01-03T19:41:11.845Z,64.53
2018-01-03T19:43:39.441Z,48.47
2018-01-03T19:46:06.999Z,46.03
2018-01-03T19:48:34.552Z,51.60
2018-01-03T19:51:02.158Z,59.83
2018-01-03T19:53:29.822Z,61.80
2018-01-03T19:55:57.547Z,87.80
2018-01-03T19:58:25.148Z,67.20
2018-01-03T20:00:52.720Z,53.83
2018-01-03T20:03:20.305Z,49.07
2018-01-03T20:05:47.905Z,47.33
2018-01-03T20:08:15.458Z,42.57
2018-01-03T20:10:43.071Z,44.80
2018-01-03T20:13:10.666Z,54.10
2018-01-03T20:15:38.233Z,49.97
2018-01-03T20:18:05.794Z,44.10
2018-01-03T20:20:33.415Z,138.00
2018-01-03T20:23:01.163Z,174.80
2018-01-03T20:25:28.752Z,151.60
2018-01-03T20:27:56.354Z,104.17
2018-01-03T20:30:23.932Z,74.93
2018-01-03T20:32:51.481Z,97.60
2018-01-03T20:35:19.095Z,80.37
2018-01-03T20:37:46.669Z,51.70
2018-01-03T20:40:14.253Z,86.40
2018-01-03T20:42:42.018Z,121.17
2018-01-03T20:45:09.607Z,141.43
2018-01-03T20:47:37.269Z,116.00
2018-01-03T20:50:04.887Z,140.07
2018-01-03T20:52:32.460Z,129.80
2018-01-03T20:55:00.038Z,123.17
2018-01-03T20:57:27.634Z,109.30
2018-01-03T20:59:55.200Z,112.23
2018-01-03T21:02:22.777Z,87.13
2018-01-03T21:04:50.408Z,118.00
2018-01-03T21:07:18.024Z,120.20
2018-01-03T21:09:45.582Z,66.50
2018-01-03T21:12:13.203Z,64.90
2018-01-03T21:14:40.776Z,59.53
2018-01-03T21:17:08.980Z,59.73
2018-01-03T21:19:36.600Z,87.70
2018-01-03T21:22:04.155Z,91.13
2018-01-03T21:24:31.782Z,120.83
2018-01-03T21:26:59.363Z,84.93
2018-01-03T21:29:27.017Z,101.87
2018-01-03T21:31:54.589Z,104.87
2018-01-03T21:34:22.201Z,89.93
2018-01-03T21:36:49.785Z,97.87
2018-01-03T21:39:17.369Z,83.13
2018-01-03T21:41:44.988Z,84.93
2018-01-03T21:44:12.590Z,83.63
2018-01-03T21:46:40.144Z,89.73
2018-01-03T21:49:07.757Z,84.53
2018-01-03T21:51:35.329Z,90.60
2018-01-03T21:54:02.914Z,79.53
2018-01-03T21:56:30.508Z,88.23
2018-01-03T21:58:58.073Z,106.20
2018-01-03T22:01:25.648Z,136.30
2018-01-03T22:03:53.264Z,85.83
2018-01-03T22:06:20.836Z,85.20
2018-01-03T22:08:48.411Z,81.80
2018-01-03T22:11:16.019Z,77.93
2018-01-03T22:13:43.568Z,77.60
2018-01-03T22:16:11.155Z,95.77
2018-01-03T22:18:38.743Z,79.03
2018-01-03T22:21:06.309Z,95.30
2018-01-03T22:23:33.870Z,78.10
2018-01-03T22:26:01.471Z,77.20
2018-01-03T22:28:29.049Z,74.97
2018-01-03T22:30:56.610Z,74.73
2018-01-03T22:33:24.186Z,79.30
2018-01-03T22:35:51.916Z,58.67
2018-01-03T22:38:19.488Z,45.70
2018-01-03T22:40:47.104Z,45.13
2018-01-03T22:43:14.694Z,50.50
2018-01-03T22:45:42.278Z,45.60
2018-01-03T22:48:09.890Z,45.97
2018-01-03T22:50:37.575Z,46.83
2018-01-03T22:53:05.190Z,46.67
2018-01-03T22:55:32.831Z,49.83
2018-01-03T22:58:00.399Z,54.93
2018-01-03T23:00:27.983Z,41.10
2018-01-03T23:02:55.592Z,52.63
2018-01-03T23:05:23.185Z,56.42
2018-01-03T23:07:50.766Z,63.47
2018-01-03T23:10:18.388Z,63.23
2018-01-03T23:12:45.957Z,56.33
2018-01-03T23:15:13.562Z,60.83
2018-01-03T23:17:41.377Z,62.60
2018-01-03T23:20:08.956Z,65.90
2018-01-03T23:22:36.591Z,56.00
2018-01-03T23:25:04.174Z,53.50
2018-01-03T23:27:31.762Z,59.60
2018-01-03T23:29:59.361Z,52.63
2018-01-03T23:32:26.950Z,55.77
2018-01-03T23:34:54.678Z,51.87
2018-01-03T23:37:22.399Z,62.17
2018-01-03T23:39:49.987Z,60.90
2018-01-03T23:42:18.486Z,55.83
2018-01-03T23:44:47.851Z,50.70
2018-01-03T23:47:15.582Z,67.07
2018-01-03T23:49:43.249Z,55.40
2018-01-03T23:52:11.769Z,66.17
2018-01-03T23:54:41.825Z,61.97
2018-01-03T23:57:13.736Z,52.43
2018-01-03T23:59:41.358Z,64.27
